Pinola, Mississippi
Current Conditions -  °F | °C
As of 1:54 AM on Sunday 23 Nov 2014 (Local Time) from KJAN Reporting Station
Overcast Overcast  
Wind Chill: 61°   Ceiling: 900
Heat Index: 61°   Visibility: 9mi
Dew Point: 58°   Wind: 12mph
Humidity: 90%   Direction: 120°ESE
Pressure: 29.86"   Gusts: NA
Location:  31.88°N, 89.96°W
Report Text: KJAN 230754Z AUTO 12010KT 9SM OVC009 16/14 A2986 RMK AO2 CIG 007V012 PRESFR SLP107 T01610144
Loading
Personal Weather Stations






























Interactive Weather Map New forecast layout! Learn more

10-Day Weather Forecast

Advertisements
Track Severe Weather on mobile